sensor_id;sensor_type;location;lat;lon;timestamp;temperature;humidity
70534;SHT31;58088;51.186;17.130;2023-09-07T00:00:46;16.62;68.26
70534;SHT31;58088;51.186;17.130;2023-09-07T00:03:13;16.59;68.14
70534;SHT31;58088;51.186;17.130;2023-09-07T00:05:40;16.57;68.06
70534;SHT31;58088;51.186;17.130;2023-09-07T00:08:07;16.54;68.03
70534;SHT31;58088;51.186;17.130;2023-09-07T00:10:33;16.52;68.05
70534;SHT31;58088;51.186;17.130;2023-09-07T00:13:03;16.49;68.16
70534;SHT31;58088;51.186;17.130;2023-09-07T00:15:30;16.45;68.19
70534;SHT31;58088;51.186;17.130;2023-09-07T00:18:03;16.43;68.14
70534;SHT31;58088;51.186;17.130;2023-09-07T00:20:30;16.42;68.11
70534;SHT31;58088;51.186;17.130;2023-09-07T00:22:57;16.39;68.21
70534;SHT31;58088;51.186;17.130;2023-09-07T00:25:24;16.30;68.41
70534;SHT31;58088;51.186;17.130;2023-09-07T00:27:50;16.27;68.52
70534;SHT31;58088;51.186;17.130;2023-09-07T00:30:16;16.28;68.44
70534;SHT31;58088;51.186;17.130;2023-09-07T00:32:43;16.28;68.41
70534;SHT31;58088;51.186;17.130;2023-09-07T00:35:09;16.28;68.44
70534;SHT31;58088;51.186;17.130;2023-09-07T00:37:36;16.27;68.39
70534;SHT31;58088;51.186;17.130;2023-09-07T00:40:04;16.26;68.39
70534;SHT31;58088;51.186;17.130;2023-09-07T00:42:34;16.24;68.38
70534;SHT31;58088;51.186;17.130;2023-09-07T00:45:02;16.22;68.29
70534;SHT31;58088;51.186;17.130;2023-09-07T00:47:29;16.20;68.21
70534;SHT31;58088;51.186;17.130;2023-09-07T00:49:57;16.18;68.30
70534;SHT31;58088;51.186;17.130;2023-09-07T00:52:26;16.15;68.36
70534;SHT31;58088;51.186;17.130;2023-09-07T00:54:53;16.12;68.29
70534;SHT31;58088;51.186;17.130;2023-09-07T00:57:20;16.10;68.23
70534;SHT31;58088;51.186;17.130;2023-09-07T00:59:48;16.05;68.46
70534;SHT31;58088;51.186;17.130;2023-09-07T02:42:13;15.32;69.24
70534;SHT31;58088;51.186;17.130;2023-09-07T02:44:39;15.29;69.38
70534;SHT31;58088;51.186;17.130;2023-09-07T02:47:06;15.23;69.72
70534;SHT31;58088;51.186;17.130;2023-09-07T02:49:33;15.15;70.01
70534;SHT31;58088;51.186;17.130;2023-09-07T02:51:59;15.10;70.17
70534;SHT31;58088;51.186;17.130;2023-09-07T02:54:25;15.05;70.35
70534;SHT31;58088;51.186;17.130;2023-09-07T02:56:51;15.00;70.39
70534;SHT31;58088;51.186;17.130;2023-09-07T02:59:18;15.01;70.40
70534;SHT31;58088;51.186;17.130;2023-09-07T03:01:46;15.01;70.23
70534;SHT31;58088;51.186;17.130;2023-09-07T03:04:12;15.00;70.09
70534;SHT31;58088;51.186;17.130;2023-09-07T03:06:38;14.98;70.01
70534;SHT31;58088;51.186;17.130;2023-09-07T03:09:04;15.00;70.04
70534;SHT31;58088;51.186;17.130;2023-09-07T03:11:35;14.95;70.25
70534;SHT31;58088;51.186;17.130;2023-09-07T03:14:02;14.94;70.29
70534;SHT31;58088;51.186;17.130;2023-09-07T03:16:28;14.94;70.11
70534;SHT31;58088;51.186;17.130;2023-09-07T03:18:56;14.94;70.04
70534;SHT31;58088;51.186;17.130;2023-09-07T03:21:22;14.95;69.98
70534;SHT31;58088;51.186;17.130;2023-09-07T03:23:56;14.92;69.81
70534;SHT31;58088;51.186;17.130;2023-09-07T03:26:23;14.90;69.80
70534;SHT31;58088;51.186;17.130;2023-09-07T03:28:50;14.88;69.76
70534;SHT31;58088;51.186;17.130;2023-09-07T03:31:18;14.85;69.62
70534;SHT31;58088;51.186;17.130;2023-09-07T03:33:44;14.82;69.67
70534;SHT31;58088;51.186;17.130;2023-09-07T03:36:12;14.80;69.64
70534;SHT31;58088;51.186;17.130;2023-09-07T03:38:41;14.78;69.62
70534;SHT31;58088;51.186;17.130;2023-09-07T03:41:08;14.77;69.62
70534;SHT31;58088;51.186;17.130;2023-09-07T03:43:35;14.76;69.65
70534;SHT31;58088;51.186;17.130;2023-09-07T03:46:01;14.77;69.79
70534;SHT31;58088;51.186;17.130;2023-09-07T03:48:27;14.75;69.88
70534;SHT31;58088;51.186;17.130;2023-09-07T03:50:53;14.74;69.79
70534;SHT31;58088;51.186;17.130;2023-09-07T03:53:20;14.72;69.73
70534;SHT31;58088;51.186;17.130;2023-09-07T03:55:46;14.69;69.78
70534;SHT31;58088;51.186;17.130;2023-09-07T03:58:14;14.68;69.78
70534;SHT31;58088;51.186;17.130;2023-09-07T04:00:41;14.63;69.81
70534;SHT31;58088;51.186;17.130;2023-09-07T04:03:08;14.62;70.18
70534;SHT31;58088;51.186;17.130;2023-09-07T04:05:37;14.61;70.40
70534;SHT31;58088;51.186;17.130;2023-09-07T04:08:04;14.62;70.40
70534;SHT31;58088;51.186;17.130;2023-09-07T04:10:31;14.61;70.53
70534;SHT31;58088;51.186;17.130;2023-09-07T04:12:57;14.61;70.69
70534;SHT31;58088;51.186;17.130;2023-09-07T04:15:24;14.57;71.08
70534;SHT31;58088;51.186;17.130;2023-09-07T04:17:53;14.53;71.09
70534;SHT31;58088;51.186;17.130;2023-09-07T04:20:21;14.53;71.01
70534;SHT31;58088;51.186;17.130;2023-09-07T04:22:48;14.51;70.94
70534;SHT31;58088;51.186;17.130;2023-09-07T04:25:14;14.50;70.82
70534;SHT31;58088;51.186;17.130;2023-09-07T04:27:40;14.55;70.81
70534;SHT31;58088;51.186;17.130;2023-09-07T04:30:07;14.66;70.78
70534;SHT31;58088;51.186;17.130;2023-09-07T04:32:35;14.89;70.54
70534;SHT31;58088;51.186;17.130;2023-09-07T04:35:02;15.13;70.32
70534;SHT31;58088;51.186;17.130;2023-09-07T04:37:30;15.41;69.99
70534;SHT31;58088;51.186;17.130;2023-09-07T04:39:56;15.73;69.56
70534;SHT31;58088;51.186;17.130;2023-09-07T04:42:23;16.08;69.59
70534;SHT31;58088;51.186;17.130;2023-09-07T04:44:49;16.47;68.77
70534;SHT31;58088;51.186;17.130;2023-09-07T04:47:15;16.85;68.04
70534;SHT31;58088;51.186;17.130;2023-09-07T04:49:42;17.25;67.49
70534;SHT31;58088;51.186;17.130;2023-09-07T04:52:38;17.62;66.54
70534;SHT31;58088;51.186;17.130;2023-09-07T04:55:30;18.01;65.86
70534;SHT31;58088;51.186;17.130;2023-09-07T04:58:20;18.42;65.30
70534;SHT31;58088;51.186;17.130;2023-09-07T05:01:12;18.89;64.39
70534;SHT31;58088;51.186;17.130;2023-09-07T05:04:03;19.44;63.32
70534;SHT31;58088;51.186;17.130;2023-09-07T05:06:56;19.94;62.17
70534;SHT31;58088;51.186;17.130;2023-09-07T05:09:48;20.41;61.08
70534;SHT31;58088;51.186;17.130;2023-09-07T05:12:40;20.87;59.99
70534;SHT31;58088;51.186;17.130;2023-09-07T05:15:31;21.27;59.07
70534;SHT31;58088;51.186;17.130;2023-09-07T05:18:22;21.73;58.13
70534;SHT31;58088;51.186;17.130;2023-09-07T05:21:14;22.24;57.32
70534;SHT31;58088;51.186;17.130;2023-09-07T05:24:06;22.74;56.41
70534;SHT31;58088;51.186;17.130;2023-09-07T05:26:57;23.19;55.56
70534;SHT31;58088;51.186;17.130;2023-09-07T05:29:49;23.58;54.34
70534;SHT31;58088;51.186;17.130;2023-09-07T05:32:40;24.00;53.29
70534;SHT31;58088;51.186;17.130;2023-09-07T05:35:32;24.36;52.76
70534;SHT31;58088;51.186;17.130;2023-09-07T05:38:23;24.71;52.11
70534;SHT31;58088;51.186;17.130;2023-09-07T05:41:15;25.11;51.57
70534;SHT31;58088;51.186;17.130;2023-09-07T05:44:06;25.41;50.97
70534;SHT31;58088;51.186;17.130;2023-09-07T05:46:57;25.75;50.58
70534;SHT31;58088;51.186;17.130;2023-09-07T05:49:49;26.16;49.53
70534;SHT31;58088;51.186;17.130;2023-09-07T05:52:40;26.62;48.21
70534;SHT31;58088;51.186;17.130;2023-09-07T08:26:52;29.24;41.25
70534;SHT31;58088;51.186;17.130;2023-09-07T08:29:20;29.31;40.86
70534;SHT31;58088;51.186;17.130;2023-09-07T08:31:46;29.19;40.71
70534;SHT31;58088;51.186;17.130;2023-09-07T08:34:14;29.14;40.58
70534;SHT31;58088;51.186;17.130;2023-09-07T08:36:40;29.11;40.87
70534;SHT31;58088;51.186;17.130;2023-09-07T08:39:06;29.12;40.90
70534;SHT31;58088;51.186;17.130;2023-09-07T08:41:39;29.09;40.97
70534;SHT31;58088;51.186;17.130;2023-09-07T08:44:12;29.08;40.96
70534;SHT31;58088;51.186;17.130;2023-09-07T08:46:43;29.07;40.68
70534;SHT31;58088;51.186;17.130;2023-09-07T08:49:10;29.12;41.30
70534;SHT31;58088;51.186;17.130;2023-09-07T08:51:37;29.22;41.20
70534;SHT31;58088;51.186;17.130;2023-09-07T08:54:04;29.17;40.35
70534;SHT31;58088;51.186;17.130;2023-09-07T08:56:33;29.10;40.12
70534;SHT31;58088;51.186;17.130;2023-09-07T08:58:59;29.06;40.28
70534;SHT31;58088;51.186;17.130;2023-09-07T09:01:26;29.06;40.26
70534;SHT31;58088;51.186;17.130;2023-09-07T09:03:54;29.06;40.22
70534;SHT31;58088;51.186;17.130;2023-09-07T09:06:20;29.00;40.17
70534;SHT31;58088;51.186;17.130;2023-09-07T09:08:50;28.97;40.59
70534;SHT31;58088;51.186;17.130;2023-09-07T09:11:20;29.00;40.13
70534;SHT31;58088;51.186;17.130;2023-09-07T09:13:48;29.00;40.10
70534;SHT31;58088;51.186;17.130;2023-09-07T09:16:16;29.01;40.57
70534;SHT31;58088;51.186;17.130;2023-09-07T09:18:54;28.96;40.62
70534;SHT31;58088;51.186;17.130;2023-09-07T09:21:25;28.98;40.54
70534;SHT31;58088;51.186;17.130;2023-09-07T09:23:54;29.03;40.37
70534;SHT31;58088;51.186;17.130;2023-09-07T09:26:22;29.02;39.77
70534;SHT31;58088;51.186;17.130;2023-09-07T09:28:49;29.03;39.83
70534;SHT31;58088;51.186;17.130;2023-09-07T09:31:18;28.99;39.89
70534;SHT31;58088;51.186;17.130;2023-09-07T09:33:49;28.98;39.61
70534;SHT31;58088;51.186;17.130;2023-09-07T09:36:18;28.96;39.77
70534;SHT31;58088;51.186;17.130;2023-09-07T09:38:49;29.00;40.20
70534;SHT31;58088;51.186;17.130;2023-09-07T09:41:19;29.11;40.10
70534;SHT31;58088;51.186;17.130;2023-09-07T09:43:49;29.16;39.83
70534;SHT31;58088;51.186;17.130;2023-09-07T09:46:18;29.23;40.16
70534;SHT31;58088;51.186;17.130;2023-09-07T09:48:48;29.25;39.47
70534;SHT31;58088;51.186;17.130;2023-09-07T09:51:23;29.29;40.03
70534;SHT31;58088;51.186;17.130;2023-09-07T09:53:53;29.28;39.85
70534;SHT31;58088;51.186;17.130;2023-09-07T09:56:20;29.27;39.76
70534;SHT31;58088;51.186;17.130;2023-09-07T09:58:47;29.29;39.28
70534;SHT31;58088;51.186;17.130;2023-09-07T10:01:13;29.28;39.29
70534;SHT31;58088;51.186;17.130;2023-09-07T10:03:42;29.23;39.45
70534;SHT31;58088;51.186;17.130;2023-09-07T10:06:19;29.16;39.79
70534;SHT31;58088;51.186;17.130;2023-09-07T10:09:01;29.23;40.04
70534;SHT31;58088;51.186;17.130;2023-09-07T10:11:32;29.17;39.18
70534;SHT31;58088;51.186;17.130;2023-09-07T10:14:03;29.11;39.18
70534;SHT31;58088;51.186;17.130;2023-09-07T10:16:50;29.15;39.56
70534;SHT31;58088;51.186;17.130;2023-09-07T10:19:22;29.21;39.53
70534;SHT31;58088;51.186;17.130;2023-09-07T10:21:52;29.25;39.44
70534;SHT31;58088;51.186;17.130;2023-09-07T10:27:05;29.42;39.68
70534;SHT31;58088;51.186;17.130;2023-09-07T10:29:43;29.41;39.22
70534;SHT31;58088;51.186;17.130;2023-09-07T10:32:15;29.38;39.27
70534;SHT31;58088;51.186;17.130;2023-09-07T10:34:42;29.44;39.58
70534;SHT31;58088;51.186;17.130;2023-09-07T10:37:34;29.48;39.06
70534;SHT31;58088;51.186;17.130;2023-09-07T10:40:26;29.56;39.00
70534;SHT31;58088;51.186;17.130;2023-09-07T10:43:18;29.50;38.32
70534;SHT31;58088;51.186;17.130;2023-09-07T10:46:09;29.47;38.68
70534;SHT31;58088;51.186;17.130;2023-09-07T10:49:01;29.45;38.89
70534;SHT31;58088;51.186;17.130;2023-09-07T10:51:53;29.45;38.29
70534;SHT31;58088;51.186;17.130;2023-09-07T10:54:47;29.35;37.66
70534;SHT31;58088;51.186;17.130;2023-09-07T10:57:48;29.30;38.27
70534;SHT31;58088;51.186;17.130;2023-09-07T11:00:39;29.36;38.55
70534;SHT31;58088;51.186;17.130;2023-09-07T11:03:30;29.40;38.83
70534;SHT31;58088;51.186;17.130;2023-09-07T11:06:22;29.37;38.06
70534;SHT31;58088;51.186;17.130;2023-09-07T11:09:14;29.30;37.75
70534;SHT31;58088;51.186;17.130;2023-09-07T11:12:07;29.31;38.14
70534;SHT31;58088;51.186;17.130;2023-09-07T11:14:59;29.38;38.09
70534;SHT31;58088;51.186;17.130;2023-09-07T11:17:51;29.43;38.19
70534;SHT31;58088;51.186;17.130;2023-09-07T11:20:42;29.41;37.71
70534;SHT31;58088;51.186;17.130;2023-09-07T11:23:34;29.31;36.73
70534;SHT31;58088;51.186;17.130;2023-09-07T11:26:28;29.28;37.35
70534;SHT31;58088;51.186;17.130;2023-09-07T11:29:19;29.26;37.40
70534;SHT31;58088;51.186;17.130;2023-09-07T11:32:10;29.27;37.86
70534;SHT31;58088;51.186;17.130;2023-09-07T11:35:06;29.24;37.26
70534;SHT31;58088;51.186;17.130;2023-09-07T11:37:59;29.27;37.61
70534;SHT31;58088;51.186;17.130;2023-09-07T11:40:55;29.32;37.63
70534;SHT31;58088;51.186;17.130;2023-09-07T11:43:47;29.35;37.59
70534;SHT31;58088;51.186;17.130;2023-09-07T11:46:39;29.30;37.67
70534;SHT31;58088;51.186;17.130;2023-09-07T11:49:31;29.30;37.47
70534;SHT31;58088;51.186;17.130;2023-09-07T11:52:23;29.21;37.26
70534;SHT31;58088;51.186;17.130;2023-09-07T11:55:14;29.22;36.95
70534;SHT31;58088;51.186;17.130;2023-09-07T11:58:07;29.22;37.24
70534;SHT31;58088;51.186;17.130;2023-09-07T12:00:59;29.24;37.24
70534;SHT31;58088;51.186;17.130;2023-09-07T12:03:51;29.31;37.78
70534;SHT31;58088;51.186;17.130;2023-09-07T12:06:42;29.37;37.53
70534;SHT31;58088;51.186;17.130;2023-09-07T12:09:34;29.43;37.39
70534;SHT31;58088;51.186;17.130;2023-09-07T12:12:25;29.38;37.29
70534;SHT31;58088;51.186;17.130;2023-09-07T12:15:16;29.34;37.46
70534;SHT31;58088;51.186;17.130;2023-09-07T12:18:07;29.35;37.87
70534;SHT31;58088;51.186;17.130;2023-09-07T12:20:59;29.38;38.07
70534;SHT31;58088;51.186;17.130;2023-09-07T12:23:51;29.36;37.46
70534;SHT31;58088;51.186;17.130;2023-09-07T12:26:43;29.34;37.33
70534;SHT31;58088;51.186;17.130;2023-09-07T12:29:34;29.36;37.03
70534;SHT31;58088;51.186;17.130;2023-09-07T12:32:26;29.26;37.05
70534;SHT31;58088;51.186;17.130;2023-09-07T12:35:18;29.28;37.20
70534;SHT31;58088;51.186;17.130;2023-09-07T12:38:10;29.29;37.23
70534;SHT31;58088;51.186;17.130;2023-09-07T12:41:05;29.26;37.04
70534;SHT31;58088;51.186;17.130;2023-09-07T12:43:56;29.26;36.88
70534;SHT31;58088;51.186;17.130;2023-09-07T12:46:48;29.26;36.59
70534;SHT31;58088;51.186;17.130;2023-09-07T12:49:40;29.21;36.51
70534;SHT31;58088;51.186;17.130;2023-09-07T12:52:33;29.18;37.24
70534;SHT31;58088;51.186;17.130;2023-09-07T12:55:28;29.22;37.00
70534;SHT31;58088;51.186;17.130;2023-09-07T12:58:21;29.20;37.01
70534;SHT31;58088;51.186;17.130;2023-09-07T13:01:12;29.25;37.36
70534;SHT31;58088;51.186;17.130;2023-09-07T13:04:06;29.29;36.98
70534;SHT31;58088;51.186;17.130;2023-09-07T13:06:58;29.21;36.58
70534;SHT31;58088;51.186;17.130;2023-09-07T13:09:50;29.17;36.63
70534;SHT31;58088;51.186;17.130;2023-09-07T13:12:41;29.19;37.06
70534;SHT31;58088;51.186;17.130;2023-09-07T13:15:33;29.24;37.03
70534;SHT31;58088;51.186;17.130;2023-09-07T13:18:25;29.29;37.36
70534;SHT31;58088;51.186;17.130;2023-09-07T13:21:15;29.29;37.30
70534;SHT31;58088;51.186;17.130;2023-09-07T13:24:07;29.33;37.60
70534;SHT31;58088;51.186;17.130;2023-09-07T13:26:59;29.31;36.93
70534;SHT31;58088;51.186;17.130;2023-09-07T13:29:49;29.27;36.89
70534;SHT31;58088;51.186;17.130;2023-09-07T13:32:41;29.28;37.19
70534;SHT31;58088;51.186;17.130;2023-09-07T13:35:31;29.26;36.82
70534;SHT31;58088;51.186;17.130;2023-09-07T13:38:22;29.23;36.66
70534;SHT31;58088;51.186;17.130;2023-09-07T13:41:14;29.26;36.96
70534;SHT31;58088;51.186;17.130;2023-09-07T13:44:06;29.27;37.11
70534;SHT31;58088;51.186;17.130;2023-09-07T13:46:58;29.29;37.25
70534;SHT31;58088;51.186;17.130;2023-09-07T13:49:50;29.31;37.53
70534;SHT31;58088;51.186;17.130;2023-09-07T13:52:41;29.31;37.57
70534;SHT31;58088;51.186;17.130;2023-09-07T13:55:33;29.31;37.01
70534;SHT31;58088;51.186;17.130;2023-09-07T13:58:25;29.28;37.55
70534;SHT31;58088;51.186;17.130;2023-09-07T14:01:17;29.22;37.21
70534;SHT31;58088;51.186;17.130;2023-09-07T14:04:09;29.17;37.28
70534;SHT31;58088;51.186;17.130;2023-09-07T14:07:01;29.10;37.54
70534;SHT31;58088;51.186;17.130;2023-09-07T14:09:53;29.09;37.24
70534;SHT31;58088;51.186;17.130;2023-09-07T14:12:45;29.08;37.23
70534;SHT31;58088;51.186;17.130;2023-09-07T14:15:38;29.08;37.08
70534;SHT31;58088;51.186;17.130;2023-09-07T14:18:30;29.08;37.17
70534;SHT31;58088;51.186;17.130;2023-09-07T14:21:21;29.02;37.58
70534;SHT31;58088;51.186;17.130;2023-09-07T14:24:12;28.97;37.43
70534;SHT31;58088;51.186;17.130;2023-09-07T14:27:04;28.91;37.37
70534;SHT31;58088;51.186;17.130;2023-09-07T14:29:55;28.89;37.44
70534;SHT31;58088;51.186;17.130;2023-09-07T14:32:47;28.87;37.51
70534;SHT31;58088;51.186;17.130;2023-09-07T14:35:40;28.85;37.18
70534;SHT31;58088;51.186;17.130;2023-09-07T14:38:32;28.83;37.10
70534;SHT31;58088;51.186;17.130;2023-09-07T14:41:31;28.81;37.49
70534;SHT31;58088;51.186;17.130;2023-09-07T14:44:22;28.78;36.97
70534;SHT31;58088;51.186;17.130;2023-09-07T14:47:14;28.79;37.19
70534;SHT31;58088;51.186;17.130;2023-09-07T14:50:06;28.78;37.33
70534;SHT31;58088;51.186;17.130;2023-09-07T14:52:58;28.74;37.12
70534;SHT31;58088;51.186;17.130;2023-09-07T14:55:49;28.71;37.28
70534;SHT31;58088;51.186;17.130;2023-09-07T14:58:40;28.71;37.82
70534;SHT31;58088;51.186;17.130;2023-09-07T15:01:32;28.72;37.55
70534;SHT31;58088;51.186;17.130;2023-09-07T15:04:24;28.68;37.54
70534;SHT31;58088;51.186;17.130;2023-09-07T15:07:15;28.69;37.73
70534;SHT31;58088;51.186;17.130;2023-09-07T15:10:07;28.70;37.91
70534;SHT31;58088;51.186;17.130;2023-09-07T15:12:59;28.66;37.76
70534;SHT31;58088;51.186;17.130;2023-09-07T15:15:55;28.67;38.17
70534;SHT31;58088;51.186;17.130;2023-09-07T15:18:47;28.67;38.25
70534;SHT31;58088;51.186;17.130;2023-09-07T15:21:39;28.64;37.44
70534;SHT31;58088;51.186;17.130;2023-09-07T15:24:31;28.60;37.38
70534;SHT31;58088;51.186;17.130;2023-09-07T15:27:23;28.58;37.60
70534;SHT31;58088;51.186;17.130;2023-09-07T15:30:18;28.51;37.40
70534;SHT31;58088;51.186;17.130;2023-09-07T15:33:10;28.49;37.80
70534;SHT31;58088;51.186;17.130;2023-09-07T15:36:02;28.51;37.93
70534;SHT31;58088;51.186;17.130;2023-09-07T15:38:54;28.50;37.94
70534;SHT31;58088;51.186;17.130;2023-09-07T15:41:46;28.45;37.95
70534;SHT31;58088;51.186;17.130;2023-09-07T15:44:38;28.37;37.83
70534;SHT31;58088;51.186;17.130;2023-09-07T15:47:32;28.35;37.93
70534;SHT31;58088;51.186;17.130;2023-09-07T15:50:26;28.33;37.99
70534;SHT31;58088;51.186;17.130;2023-09-07T15:53:18;28.31;38.24
70534;SHT31;58088;51.186;17.130;2023-09-07T15:56:11;28.29;38.46
70534;SHT31;58088;51.186;17.130;2023-09-07T15:59:02;28.26;38.68
70534;SHT31;58088;51.186;17.130;2023-09-07T16:01:54;28.21;38.90
70534;SHT31;58088;51.186;17.130;2023-09-07T16:04:49;28.17;39.14
70534;SHT31;58088;51.186;17.130;2023-09-07T16:07:41;28.11;39.07
70534;SHT31;58088;51.186;17.130;2023-09-07T16:10:33;28.06;39.18
70534;SHT31;58088;51.186;17.130;2023-09-07T16:13:27;27.99;39.40
70534;SHT31;58088;51.186;17.130;2023-09-07T16:15:54;27.94;39.41
70534;SHT31;58088;51.186;17.130;2023-09-07T16:18:22;27.91;39.56
70534;SHT31;58088;51.186;17.130;2023-09-07T16:20:51;27.89;39.55
70534;SHT31;58088;51.186;17.130;2023-09-07T16:23:18;27.84;39.74
70534;SHT31;58088;51.186;17.130;2023-09-07T16:25:45;27.83;39.87
70534;SHT31;58088;51.186;17.130;2023-09-07T16:28:15;27.81;40.03
70534;SHT31;58088;51.186;17.130;2023-09-07T16:30:42;27.77;40.04
70534;SHT31;58088;51.186;17.130;2023-09-07T16:33:09;27.73;40.18
70534;SHT31;58088;51.186;17.130;2023-09-07T16:35:35;27.70;40.33
70534;SHT31;58088;51.186;17.130;2023-09-07T16:38:03;27.67;40.55
70534;SHT31;58088;51.186;17.130;2023-09-07T16:40:30;27.63;40.79
70534;SHT31;58088;51.186;17.130;2023-09-07T16:42:57;27.60;40.89
70534;SHT31;58088;51.186;17.130;2023-09-07T16:45:24;27.57;41.02
70534;SHT31;58088;51.186;17.130;2023-09-07T16:47:51;27.54;41.13
70534;SHT31;58088;51.186;17.130;2023-09-07T16:50:20;27.52;41.21
70534;SHT31;58088;51.186;17.130;2023-09-07T16:52:47;27.48;41.29
70534;SHT31;58088;51.186;17.130;2023-09-07T16:55:14;27.42;41.41
70534;SHT31;58088;51.186;17.130;2023-09-07T16:57:40;27.38;41.50
70534;SHT31;58088;51.186;17.130;2023-09-07T17:00:08;27.34;41.57
70534;SHT31;58088;51.186;17.130;2023-09-07T17:02:37;27.29;41.65
70534;SHT31;58088;51.186;17.130;2023-09-07T17:05:04;27.25;42.53
70534;SHT31;58088;51.186;17.130;2023-09-07T17:07:31;27.14;43.11
70534;SHT31;58088;51.186;17.130;2023-09-07T17:09:58;27.09;43.32
70534;SHT31;58088;51.186;17.130;2023-09-07T17:12:25;27.02;44.72
70534;SHT31;58088;51.186;17.130;2023-09-07T17:14:55;26.89;45.54
70534;SHT31;58088;51.186;17.130;2023-09-07T17:17:22;26.79;45.98
70534;SHT31;58088;51.186;17.130;2023-09-07T17:19:48;26.65;46.66
70534;SHT31;58088;51.186;17.130;2023-09-07T17:22:15;26.49;47.10
70534;SHT31;58088;51.186;17.130;2023-09-07T17:24:43;26.37;47.57
70534;SHT31;58088;51.186;17.130;2023-09-07T17:27:10;26.27;47.91
70534;SHT31;58088;51.186;17.130;2023-09-07T17:29:37;26.15;48.05
70534;SHT31;58088;51.186;17.130;2023-09-07T17:32:04;26.03;48.42
70534;SHT31;58088;51.186;17.130;2023-09-07T17:34:31;25.89;48.43
70534;SHT31;58088;51.186;17.130;2023-09-07T17:37:02;25.78;48.80
70534;SHT31;58088;51.186;17.130;2023-09-07T17:39:34;25.64;49.19
70534;SHT31;58088;51.186;17.130;2023-09-07T17:42:05;25.50;49.64
70534;SHT31;58088;51.186;17.130;2023-09-07T17:44:32;25.36;49.94
70534;SHT31;58088;51.186;17.130;2023-09-07T17:46:59;25.25;50.23
70534;SHT31;58088;51.186;17.130;2023-09-07T17:49:27;25.14;50.48
70534;SHT31;58088;51.186;17.130;2023-09-07T17:51:55;25.02;50.93
70534;SHT31;58088;51.186;17.130;2023-09-07T17:54:22;24.90;51.45
70534;SHT31;58088;51.186;17.130;2023-09-07T17:56:52;24.77;51.75
70534;SHT31;58088;51.186;17.130;2023-09-07T17:59:19;24.65;52.20
70534;SHT31;58088;51.186;17.130;2023-09-07T18:01:45;24.54;52.71
70534;SHT31;58088;51.186;17.130;2023-09-07T18:04:12;24.44;52.97
70534;SHT31;58088;51.186;17.130;2023-09-07T18:06:40;24.31;53.29
70534;SHT31;58088;51.186;17.130;2023-09-07T18:09:06;24.20;53.09
70534;SHT31;58088;51.186;17.130;2023-09-07T18:11:35;24.08;52.87
70534;SHT31;58088;51.186;17.130;2023-09-07T18:14:05;23.98;52.66
70534;SHT31;58088;51.186;17.130;2023-09-07T18:16:32;23.90;52.62
70534;SHT31;58088;51.186;17.130;2023-09-07T18:19:01;23.81;52.54
70534;SHT31;58088;51.186;17.130;2023-09-07T18:21:28;23.72;52.62
70534;SHT31;58088;51.186;17.130;2023-09-07T18:23:56;23.60;52.63
70534;SHT31;58088;51.186;17.130;2023-09-07T18:26:26;23.50;52.71
70534;SHT31;58088;51.186;17.130;2023-09-07T18:28:57;23.41;53.14
70534;SHT31;58088;51.186;17.130;2023-09-07T18:31:33;23.31;53.78
70534;SHT31;58088;51.186;17.130;2023-09-07T18:33:59;23.21;54.47
70534;SHT31;58088;51.186;17.130;2023-09-07T18:36:26;23.13;54.78
70534;SHT31;58088;51.186;17.130;2023-09-07T18:39:03;23.06;54.81
70534;SHT31;58088;51.186;17.130;2023-09-07T18:41:34;22.94;54.30
70534;SHT31;58088;51.186;17.130;2023-09-07T18:44:01;22.82;54.23
70534;SHT31;58088;51.186;17.130;2023-09-07T18:46:32;22.74;54.47
70534;SHT31;58088;51.186;17.130;2023-09-07T18:49:00;22.65;54.40
70534;SHT31;58088;51.186;17.130;2023-09-07T18:51:28;22.57;54.47
70534;SHT31;58088;51.186;17.130;2023-09-07T18:53:55;22.41;54.86
70534;SHT31;58088;51.186;17.130;2023-09-07T18:56:27;22.33;55.09
70534;SHT31;58088;51.186;17.130;2023-09-07T18:58:54;22.25;55.16
70534;SHT31;58088;51.186;17.130;2023-09-07T19:01:23;22.19;55.39
70534;SHT31;58088;51.186;17.130;2023-09-07T19:04:10;22.13;55.45
70534;SHT31;58088;51.186;17.130;2023-09-07T19:06:39;22.06;55.58
70534;SHT31;58088;51.186;17.130;2023-09-07T19:09:08;21.93;56.08
70534;SHT31;58088;51.186;17.130;2023-09-07T19:11:36;21.74;56.62
70534;SHT31;58088;51.186;17.130;2023-09-07T19:14:04;21.60;56.91
70534;SHT31;58088;51.186;17.130;2023-09-07T19:16:35;21.53;56.97
70534;SHT31;58088;51.186;17.130;2023-09-07T19:19:09;21.46;57.04
70534;SHT31;58088;51.186;17.130;2023-09-07T19:21:40;21.43;57.13
70534;SHT31;58088;51.186;17.130;2023-09-07T19:24:06;21.39;57.19
70534;SHT31;58088;51.186;17.130;2023-09-07T19:26:39;21.35;57.30
70534;SHT31;58088;51.186;17.130;2023-09-07T19:29:07;21.31;57.37
70534;SHT31;58088;51.186;17.130;2023-09-07T19:31:36;21.26;57.63
70534;SHT31;58088;51.186;17.130;2023-09-07T19:34:07;21.18;57.80
70534;SHT31;58088;51.186;17.130;2023-09-07T19:36:39;21.13;57.83
70534;SHT31;58088;51.186;17.130;2023-09-07T19:39:09;21.08;58.16
70534;SHT31;58088;51.186;17.130;2023-09-07T19:41:37;21.01;58.34
70534;SHT31;58088;51.186;17.130;2023-09-07T19:44:06;20.97;58.41
70534;SHT31;58088;51.186;17.130;2023-09-07T19:46:37;20.90;58.41
70534;SHT31;58088;51.186;17.130;2023-09-07T19:49:05;20.82;58.78
70534;SHT31;58088;51.186;17.130;2023-09-07T19:51:34;20.72;59.20
70534;SHT31;58088;51.186;17.130;2023-09-07T19:54:01;20.65;59.21
70534;SHT31;58088;51.186;17.130;2023-09-07T19:56:30;20.57;59.34
70534;SHT31;58088;51.186;17.130;2023-09-07T19:58:57;20.54;59.37
70534;SHT31;58088;51.186;17.130;2023-09-07T20:01:25;20.49;59.52
70534;SHT31;58088;51.186;17.130;2023-09-07T20:04:16;20.42;59.80
70534;SHT31;58088;51.186;17.130;2023-09-07T20:06:45;20.35;59.86
70534;SHT31;58088;51.186;17.130;2023-09-07T20:09:12;20.31;59.90
70534;SHT31;58088;51.186;17.130;2023-09-07T20:11:39;20.27;60.03
70534;SHT31;58088;51.186;17.130;2023-09-07T20:14:08;20.26;60.20
70534;SHT31;58088;51.186;17.130;2023-09-07T20:16:36;20.22;60.78
70534;SHT31;58088;51.186;17.130;2023-09-07T20:19:03;20.13;61.18
70534;SHT31;58088;51.186;17.130;2023-09-07T20:21:30;20.09;61.09
70534;SHT31;58088;51.186;17.130;2023-09-07T20:23:59;20.04;60.88
70534;SHT31;58088;51.186;17.130;2023-09-07T20:26:26;20.00;60.87
70534;SHT31;58088;51.186;17.130;2023-09-07T20:28:55;19.93;61.16
70534;SHT31;58088;51.186;17.130;2023-09-07T20:31:24;19.82;61.65